sensor_id;sensor_type;location;lat;lon;timestamp;pressure;altitude;pressure_sealevel;temperature;humidity
58821;BME280;70670;52.476;13.334;2023-07-30T00:01:20;100190.03;;;15.73;100.00
58821;BME280;70670;52.476;13.334;2023-07-30T00:03:45;100252.66;;;16.09;100.00
58821;BME280;70670;52.476;13.334;2023-07-30T00:06:11;100253.75;;;16.07;100.00
58821;BME280;70670;52.476;13.334;2023-07-30T00:08:37;100238.81;;;16.03;100.00
58821;BME280;70670;52.476;13.334;2023-07-30T00:11:02;100250.47;;;16.03;100.00
58821;BME280;70670;52.476;13.334;2023-07-30T00:13:28;100242.09;;;16.06;100.00
58821;BME280;70670;52.476;13.334;2023-07-30T00:15:54;100248.25;;;16.08;100.00
58821;BME280;70670;52.476;13.334;2023-07-30T00:18:19;100251.41;;;16.13;100.00
58821;BME280;70670;52.476;13.334;2023-07-30T00:20:45;100235.16;;;16.04;100.00
58821;BME280;70670;52.476;13.334;2023-07-30T00:23:11;100246.00;;;16.13;100.00
58821;BME280;70670;52.476;13.334;2023-07-30T00:25:36;100233.75;;;16.09;100.00
58821;BME280;70670;52.476;13.334;2023-07-30T00:28:02;100235.84;;;16.06;100.00
58821;BME280;70670;52.476;13.334;2023-07-30T00:30:28;100199.44;;;15.79;100.00
58821;BME280;70670;52.476;13.334;2023-07-30T00:32:54;100243.59;;;15.99;100.00
58821;BME280;70670;52.476;13.334;2023-07-30T00:35:19;100241.91;;;15.98;100.00
58821;BME280;70670;52.476;13.334;2023-07-30T00:37:45;100237.91;;;15.92;100.00
58821;BME280;70670;52.476;13.334;2023-07-30T00:40:11;100239.00;;;15.90;100.00
58821;BME280;70670;52.476;13.334;2023-07-30T00:42:37;100237.75;;;15.94;100.00
58821;BME280;70670;52.476;13.334;2023-07-30T00:45:03;100221.13;;;15.89;100.00
58821;BME280;70670;52.476;13.334;2023-07-30T00:47:28;100220.16;;;15.99;100.00
58821;BME280;70670;52.476;13.334;2023-07-30T00:49:54;100163.75;;;15.76;100.00
58821;BME280;70670;52.476;13.334;2023-07-30T00:52:21;100208.19;;;16.13;100.00
58821;BME280;70670;52.476;13.334;2023-07-30T00:54:48;100200.09;;;16.13;100.00
58821;BME280;70670;52.476;13.334;2023-07-30T00:57:15;100192.84;;;16.14;100.00
58821;BME280;70670;52.476;13.334;2023-07-30T00:59:42;100207.69;;;16.19;100.00
58821;BME280;70670;52.476;13.334;2023-07-30T01:02:08;100212.59;;;16.14;100.00
58821;BME280;70670;52.476;13.334;2023-07-30T01:04:34;100225.25;;;16.14;100.00
58821;BME280;70670;52.476;13.334;2023-07-30T01:07:03;100200.97;;;15.93;100.00
58821;BME280;70670;52.476;13.334;2023-07-30T01:09:29;100229.66;;;15.94;100.00
58821;BME280;70670;52.476;13.334;2023-07-30T01:11:55;100214.53;;;15.82;100.00
58821;BME280;70670;52.476;13.334;2023-07-30T01:14:21;100227.28;;;15.80;100.00
58821;BME280;70670;52.476;13.334;2023-07-30T01:16:47;100216.28;;;15.71;100.00
58821;BME280;70670;52.476;13.334;2023-07-30T01:19:13;100164.78;;;15.42;100.00
58821;BME280;70670;52.476;13.334;2023-07-30T01:21:39;100226.56;;;15.78;100.00
58821;BME280;70670;52.476;13.334;2023-07-30T01:24:04;100227.56;;;15.77;100.00
58821;BME280;70670;52.476;13.334;2023-07-30T01:26:34;100168.31;;;15.43;100.00
58821;BME280;70670;52.476;13.334;2023-07-30T01:29:00;100240.25;;;15.86;100.00
58821;BME280;70670;52.476;13.334;2023-07-30T01:31:30;100243.94;;;15.85;100.00
58821;BME280;70670;52.476;13.334;2023-07-30T01:33:56;100234.41;;;15.81;100.00
58821;BME280;70670;52.476;13.334;2023-07-30T01:36:22;100238.94;;;15.80;100.00
58821;BME280;70670;52.476;13.334;2023-07-30T01:38:49;100249.25;;;15.75;100.00
58821;BME280;70670;52.476;13.334;2023-07-30T01:41:16;100251.63;;;15.68;100.00
58821;BME280;70670;52.476;13.334;2023-07-30T01:43:41;100254.78;;;15.62;100.00
58821;BME280;70670;52.476;13.334;2023-07-30T01:46:07;100260.94;;;15.64;100.00
58821;BME280;70670;52.476;13.334;2023-07-30T01:48:33;100250.13;;;15.64;100.00
58821;BME280;70670;52.476;13.334;2023-07-30T01:50:58;100254.78;;;15.73;100.00
58821;BME280;70670;52.476;13.334;2023-07-30T01:53:24;100256.25;;;15.78;100.00
58821;BME280;70670;52.476;13.334;2023-07-30T01:55:50;100258.34;;;15.74;100.00
58821;BME280;70670;52.476;13.334;2023-07-30T01:58:15;100256.41;;;15.65;100.00
58821;BME280;70670;52.476;13.334;2023-07-30T02:00:41;100253.34;;;15.69;100.00
58821;BME280;70670;52.476;13.334;2023-07-30T02:03:06;100254.03;;;15.71;100.00
58821;BME280;70670;52.476;13.334;2023-07-30T02:05:32;100255.28;;;15.67;100.00
58821;BME280;70670;52.476;13.334;2023-07-30T02:07:58;100197.78;;;15.23;100.00
58821;BME280;70670;52.476;13.334;2023-07-30T02:10:25;100239.13;;;15.56;100.00
58821;BME280;70670;52.476;13.334;2023-07-30T02:12:50;100260.69;;;15.67;100.00
58821;BME280;70670;52.476;13.334;2023-07-30T02:15:16;100253.34;;;15.69;100.00
58821;BME280;70670;52.476;13.334;2023-07-30T02:17:41;100246.47;;;15.65;100.00
58821;BME280;70670;52.476;13.334;2023-07-30T02:20:08;100256.75;;;15.71;100.00
58821;BME280;70670;52.476;13.334;2023-07-30T02:22:34;100207.31;;;15.39;100.00
58821;BME280;70670;52.476;13.334;2023-07-30T02:24:59;100261.88;;;15.74;100.00
58821;BME280;70670;52.476;13.334;2023-07-30T02:27:25;100270.72;;;15.77;100.00
58821;BME280;70670;52.476;13.334;2023-07-30T02:29:51;100256.75;;;15.71;100.00
58821;BME280;70670;52.476;13.334;2023-07-30T02:32:16;100269.47;;;15.81;100.00
58821;BME280;70670;52.476;13.334;2023-07-30T02:34:42;100258.47;;;15.72;100.00
58821;BME280;70670;52.476;13.334;2023-07-30T02:37:08;100266.78;;;15.81;100.00
58821;BME280;70670;52.476;13.334;2023-07-30T02:39:33;100275.59;;;15.83;99.63
58821;BME280;70670;52.476;13.334;2023-07-30T02:41:59;100264.84;;;15.71;100.00
58821;BME280;70670;52.476;13.334;2023-07-30T02:44:25;100282.50;;;15.64;100.00
58821;BME280;70670;52.476;13.334;2023-07-30T02:46:50;100285.47;;;15.50;100.00
58821;BME280;70670;52.476;13.334;2023-07-30T02:49:16;100290.91;;;15.39;100.00
58821;BME280;70670;52.476;13.334;2023-07-30T02:51:41;100282.34;;;15.34;100.00
58821;BME280;70670;52.476;13.334;2023-07-30T02:54:08;100271.34;;;15.25;100.00
58821;BME280;70670;52.476;13.334;2023-07-30T02:56:35;100276.34;;;15.30;100.00
58821;BME280;70670;52.476;13.334;2023-07-30T02:59:01;100263.97;;;15.16;100.00
58821;BME280;70670;52.476;13.334;2023-07-30T03:01:26;100272.34;;;15.13;100.00
58821;BME280;70670;52.476;13.334;2023-07-30T03:03:52;100283.81;;;15.15;100.00
58821;BME280;70670;52.476;13.334;2023-07-30T03:06:18;100272.66;;;15.20;100.00
58821;BME280;70670;52.476;13.334;2023-07-30T03:08:43;100272.78;;;15.30;100.00
58821;BME280;70670;52.476;13.334;2023-07-30T03:11:09;100277.41;;;15.39;100.00
58821;BME280;70670;52.476;13.334;2023-07-30T03:13:35;100277.16;;;15.42;100.00
58821;BME280;70670;52.476;13.334;2023-07-30T03:16:00;100278.63;;;15.46;100.00
58821;BME280;70670;52.476;13.334;2023-07-30T03:18:26;100229.91;;;15.15;100.00
58821;BME280;70670;52.476;13.334;2023-07-30T03:20:57;100223.81;;;15.13;100.00
58821;BME280;70670;52.476;13.334;2023-07-30T03:23:23;100276.19;;;15.43;100.00
58821;BME280;70670;52.476;13.334;2023-07-30T03:25:49;100281.09;;;15.38;100.00
58821;BME280;70670;52.476;13.334;2023-07-30T03:28:14;100285.41;;;15.40;100.00
58821;BME280;70670;52.476;13.334;2023-07-30T03:30:40;100292.03;;;15.25;100.00
58821;BME280;70670;52.476;13.334;2023-07-30T03:33:06;100296.31;;;15.28;100.00
58821;BME280;70670;52.476;13.334;2023-07-30T03:35:31;100283.34;;;15.21;100.00
58821;BME280;70670;52.476;13.334;2023-07-30T03:37:57;100282.13;;;15.25;100.00
58821;BME280;70670;52.476;13.334;2023-07-30T03:40:24;100294.75;;;15.14;100.00
58821;BME280;70670;52.476;13.334;2023-07-30T03:42:50;100299.00;;;15.16;100.00
58821;BME280;70670;52.476;13.334;2023-07-30T03:45:15;100302.59;;;15.06;100.00
58821;BME280;70670;52.476;13.334;2023-07-30T03:47:41;100275.41;;;14.86;100.00
58821;BME280;70670;52.476;13.334;2023-07-30T03:50:06;100297.34;;;14.93;100.00
58821;BME280;70670;52.476;13.334;2023-07-30T03:52:32;100304.69;;;14.91;100.00
58821;BME280;70670;52.476;13.334;2023-07-30T03:54:58;100299.06;;;14.94;100.00
58821;BME280;70670;52.476;13.334;2023-07-30T03:57:23;100305.06;;;14.97;100.00
58821;BME280;70670;52.476;13.334;2023-07-30T03:59:49;100310.53;;;14.85;100.00
58821;BME280;70670;52.476;13.334;2023-07-30T04:02:15;100297.44;;;14.80;100.00
58821;BME280;70670;52.476;13.334;2023-07-30T04:04:44;100301.25;;;14.89;100.00
58821;BME280;70670;52.476;13.334;2023-07-30T04:07:11;100297.34;;;14.93;100.00
58821;BME280;70670;52.476;13.334;2023-07-30T04:09:37;100298.81;;;14.86;100.00
58821;BME280;70670;52.476;13.334;2023-07-30T04:12:03;100309.81;;;14.83;100.00
58821;BME280;70670;52.476;13.334;2023-07-30T04:14:28;100317.41;;;14.78;100.00
58821;BME280;70670;52.476;13.334;2023-07-30T04:16:54;100320.34;;;14.74;100.00
58821;BME280;70670;52.476;13.334;2023-07-30T04:19:19;100320.59;;;14.71;100.00
58821;BME280;70670;52.476;13.334;2023-07-30T04:21:46;100324.03;;;14.73;100.00
58821;BME280;70670;52.476;13.334;2023-07-30T04:24:12;100317.53;;;14.76;100.00
58821;BME280;70670;52.476;13.334;2023-07-30T04:26:37;100301.13;;;14.79;100.00
58821;BME280;70670;52.476;13.334;2023-07-30T04:29:03;100312.13;;;14.87;100.00
58821;BME280;70670;52.476;13.334;2023-07-30T04:31:29;100319.59;;;14.84;100.00
58821;BME280;70670;52.476;13.334;2023-07-30T04:33:54;100324.00;;;14.85;100.00
58821;BME280;70670;52.476;13.334;2023-07-30T04:36:20;100312.97;;;14.76;100.00
58821;BME280;70670;52.476;13.334;2023-07-30T04:38:45;100317.44;;;14.89;100.00
58821;BME280;70670;52.476;13.334;2023-07-30T04:41:11;100326.22;;;14.91;99.59
58821;BME280;70670;52.476;13.334;2023-07-30T04:43:37;100336.03;;;14.92;99.72
58821;BME280;70670;52.476;13.334;2023-07-30T04:46:02;100317.44;;;14.89;99.90
58821;BME280;70670;52.476;13.334;2023-07-30T04:48:28;100217.44;;;14.36;99.89
58821;BME280;70670;52.476;13.334;2023-07-30T04:50:54;100222.72;;;14.48;99.71
58821;BME280;70670;52.476;13.334;2023-07-30T04:53:19;100330.41;;;15.17;99.11
58821;BME280;70670;52.476;13.334;2023-07-30T04:55:46;100275.03;;;14.80;98.41
58821;BME280;70670;52.476;13.334;2023-07-30T04:58:12;100322.41;;;15.16;98.75
58821;BME280;70670;52.476;13.334;2023-07-30T05:00:37;100325.25;;;15.25;98.14
58821;BME280;70670;52.476;13.334;2023-07-30T05:03:03;100323.16;;;15.29;98.54
58821;BME280;70670;52.476;13.334;2023-07-30T05:05:29;100327.31;;;15.33;98.52
58821;BME280;70670;52.476;13.334;2023-07-30T05:07:54;100318.84;;;15.38;97.62
58821;BME280;70670;52.476;13.334;2023-07-30T05:10:20;100326.56;;;15.42;97.24
58821;BME280;70670;52.476;13.334;2023-07-30T05:12:45;100328.63;;;15.50;96.51
58821;BME280;70670;52.476;13.334;2023-07-30T05:15:11;100327.25;;;15.56;96.66
58821;BME280;70670;52.476;13.334;2023-07-30T05:17:36;100321.75;;;15.57;95.97
58821;BME280;70670;52.476;13.334;2023-07-30T05:20:02;100320.78;;;15.58;nan
58821;BME280;70670;52.476;13.334;2023-07-30T05:22:28;100325.78;;;15.63;94.93
58821;BME280;70670;52.476;13.334;2023-07-30T05:24:54;100321.63;;;15.70;94.44
58821;BME280;70670;52.476;13.334;2023-07-30T05:27:19;100303.84;;;15.67;93.63
58821;BME280;70670;52.476;13.334;2023-07-30T05:29:45;100323.56;;;15.79;93.21
58821;BME280;70670;52.476;13.334;2023-07-30T05:32:10;100330.06;;;15.88;92.82
58821;BME280;70670;52.476;13.334;2023-07-30T05:34:38;100339.22;;;15.96;92.24
58821;BME280;70670;52.476;13.334;2023-07-30T05:37:03;100326.03;;;16.03;92.36
58821;BME280;70670;52.476;13.334;2023-07-30T05:39:29;100323.81;;;16.08;91.86
58821;BME280;70670;52.476;13.334;2023-07-30T05:41:54;100325.75;;;16.17;90.82
58821;BME280;70670;52.476;13.334;2023-07-30T05:44:20;100340.53;;;16.23;91.07
58821;BME280;70670;52.476;13.334;2023-07-30T05:46:46;100333.03;;;16.27;90.80
58821;BME280;70670;52.476;13.334;2023-07-30T05:49:11;100327.00;;;16.34;90.70
58821;BME280;70670;52.476;13.334;2023-07-30T05:51:37;100338.84;;;16.43;89.55
58821;BME280;70670;52.476;13.334;2023-07-30T05:54:03;100319.44;;;16.49;89.65
58821;BME280;70670;52.476;13.334;2023-07-30T05:56:28;100313.03;;;16.50;89.29
58821;BME280;70670;52.476;13.334;2023-07-30T05:58:54;100268.25;;;16.27;88.38
58821;BME280;70670;52.476;13.334;2023-07-30T06:01:19;100323.38;;;16.66;88.33
58821;BME280;70670;52.476;13.334;2023-07-30T06:03:45;100334.50;;;16.72;88.57
58821;BME280;70670;52.476;13.334;2023-07-30T06:06:11;100333.97;;;16.79;88.31
58821;BME280;70670;52.476;13.334;2023-07-30T06:08:37;100329.47;;;16.79;87.28
58821;BME280;70670;52.476;13.334;2023-07-30T06:11:02;100332.38;;;16.97;87.31
58821;BME280;70670;52.476;13.334;2023-07-30T06:13:31;100339.41;;;17.09;86.13
58821;BME280;70670;52.476;13.334;2023-07-30T06:15:57;100328.75;;;17.17;85.89
58821;BME280;70670;52.476;13.334;2023-07-30T06:18:22;100319.38;;;17.12;86.00
58821;BME280;70670;52.476;13.334;2023-07-30T06:20:48;100329.03;;;17.14;86.64
58821;BME280;70670;52.476;13.334;2023-07-30T06:23:14;100329.22;;;17.23;86.49
58821;BME280;70670;52.476;13.334;2023-07-30T06:25:40;100305.69;;;17.13;87.14
58821;BME280;70670;52.476;13.334;2023-07-30T06:28:05;100305.16;;;17.19;86.06
58821;BME280;70670;52.476;13.334;2023-07-30T06:30:34;100285.34;;;17.09;85.41
58821;BME280;70670;52.476;13.334;2023-07-30T06:33:02;100329.72;;;17.47;86.32
58821;BME280;70670;52.476;13.334;2023-07-30T06:35:28;100316.19;;;17.47;85.06
58821;BME280;70670;52.476;13.334;2023-07-30T06:37:53;100327.75;;;17.59;83.97
58821;BME280;70670;52.476;13.334;2023-07-30T06:40:19;100331.75;;;17.64;84.38
58821;BME280;70670;52.476;13.334;2023-07-30T06:42:45;100329.47;;;17.69;83.96
58821;BME280;70670;52.476;13.334;2023-07-30T06:45:10;100340.22;;;17.81;84.58
58821;BME280;70670;52.476;13.334;2023-07-30T06:47:36;100344.50;;;17.83;83.86
58821;BME280;70670;52.476;13.334;2023-07-30T06:50:01;100333.25;;;17.88;83.21
58821;BME280;70670;52.476;13.334;2023-07-30T06:52:28;100342.09;;;17.90;83.72
58821;BME280;70670;52.476;13.334;2023-07-30T06:54:54;100340.09;;;17.92;83.72
58821;BME280;70670;52.476;13.334;2023-07-30T06:57:19;100336.94;;;17.97;82.61
58821;BME280;70670;52.476;13.334;2023-07-30T06:59:45;100339.53;;;18.08;82.46
58821;BME280;70670;52.476;13.334;2023-07-30T07:02:11;100334.41;;;18.14;83.20
58821;BME280;70670;52.476;13.334;2023-07-30T07:04:36;100333.25;;;18.27;82.94
58821;BME280;70670;52.476;13.334;2023-07-30T07:07:02;100331.25;;;18.29;82.46
58821;BME280;70670;52.476;13.334;2023-07-30T07:09:29;100352.06;;;18.38;82.46
58821;BME280;70670;52.476;13.334;2023-07-30T07:11:55;100244.78;;;17.79;82.09
58821;BME280;70670;52.476;13.334;2023-07-30T07:14:20;100348.91;;;18.52;82.22
58821;BME280;70670;52.476;13.334;2023-07-30T07:16:46;100281.66;;;18.18;82.41
58821;BME280;70670;52.476;13.334;2023-07-30T07:19:13;100330.38;;;18.48;81.68
58821;BME280;70670;52.476;13.334;2023-07-30T07:21:40;100330.66;;;18.54;82.09
58821;BME280;70670;52.476;13.334;2023-07-30T07:24:05;100320.81;;;18.53;82.38
58821;BME280;70670;52.476;13.334;2023-07-30T07:26:31;100324.63;;;18.60;81.35
58821;BME280;70670;52.476;13.334;2023-07-30T07:28:56;100324.06;;;18.57;80.18
58821;BME280;70670;52.476;13.334;2023-07-30T07:31:22;100318.25;;;18.61;80.58
58821;BME280;70670;52.476;13.334;2023-07-30T07:33:48;100324.78;;;18.78;81.31
58821;BME280;70670;52.476;13.334;2023-07-30T07:36:13;100312.47;;;18.84;80.25
58821;BME280;70670;52.476;13.334;2023-07-30T07:38:40;100322.25;;;19.04;80.09
58821;BME280;70670;52.476;13.334;2023-07-30T07:41:06;100296.13;;;19.03;79.85
58821;BME280;70670;52.476;13.334;2023-07-30T07:43:31;100334.13;;;19.31;79.55
58821;BME280;70670;52.476;13.334;2023-07-30T07:45:57;100322.28;;;19.32;79.40
58821;BME280;70670;52.476;13.334;2023-07-30T07:48:23;100313.53;;;19.38;78.61
58821;BME280;70670;52.476;13.334;2023-07-30T07:50:49;100317.38;;;19.45;78.67
58821;BME280;70670;52.476;13.334;2023-07-30T07:53:14;100322.25;;;19.59;77.97
58821;BME280;70670;52.476;13.334;2023-07-30T07:55:40;100252.56;;;19.14;77.51
58821;BME280;70670;52.476;13.334;2023-07-30T07:58:05;100318.56;;;19.60;78.01
58821;BME280;70670;52.476;13.334;2023-07-30T08:00:31;100328.34;;;19.71;77.99
58821;BME280;70670;52.476;13.334;2023-07-30T08:02:57;100325.91;;;19.78;77.22
58821;BME280;70670;52.476;13.334;2023-07-30T08:05:23;100297.50;;;19.72;76.87
58821;BME280;70670;52.476;13.334;2023-07-30T08:07:50;100325.59;;;19.81;76.13
58821;BME280;70670;52.476;13.334;2023-07-30T08:10:16;100338.38;;;19.71;74.91
58821;BME280;70670;52.476;13.334;2023-07-30T08:12:42;100335.34;;;19.74;76.89
58821;BME280;70670;52.476;13.334;2023-07-30T08:15:08;100309.91;;;19.75;76.12
58821;BME280;70670;52.476;13.334;2023-07-30T08:17:33;100324.66;;;19.90;74.95
58821;BME280;70670;52.476;13.334;2023-07-30T08:19:59;100320.41;;;20.05;73.59
58821;BME280;70670;52.476;13.334;2023-07-30T08:22:25;100354.16;;;20.21;72.27
58821;BME280;70670;52.476;13.334;2023-07-30T08:24:50;100331.88;;;20.17;71.42
58821;BME280;70670;52.476;13.334;2023-07-30T08:27:16;100339.03;;;20.00;70.56
58821;BME280;70670;52.476;13.334;2023-07-30T08:29:42;100334.59;;;19.99;71.50
58821;BME280;70670;52.476;13.334;2023-07-30T08:32:07;100339.63;;;19.94;70.14
58821;BME280;70670;52.476;13.334;2023-07-30T08:34:33;100334.44;;;19.83;69.07
58821;BME280;70670;52.476;13.334;2023-07-30T08:36:59;100331.63;;;19.75;69.41
58821;BME280;70670;52.476;13.334;2023-07-30T08:39:24;100327.13;;;19.83;69.58
58821;BME280;70670;52.476;13.334;2023-07-30T08:41:50;100327.13;;;19.83;69.22
58821;BME280;70670;52.476;13.334;2023-07-30T08:44:16;100341.81;;;19.90;69.81
58821;BME280;70670;52.476;13.334;2023-07-30T08:46:41;100332.03;;;19.98;68.40
58821;BME280;70670;52.476;13.334;2023-07-30T08:49:07;100345.78;;;19.96;68.68
58821;BME280;70670;52.476;13.334;2023-07-30T08:51:34;100342.91;;;19.80;68.40
58821;BME280;70670;52.476;13.334;2023-07-30T08:54:01;100337.13;;;19.83;68.36
58821;BME280;70670;52.476;13.334;2023-07-30T08:56:27;100294.09;;;19.70;67.89
58821;BME280;70670;52.476;13.334;2023-07-30T08:58:55;100335.31;;;20.01;65.66
58821;BME280;70670;52.476;13.334;2023-07-30T09:01:22;100339.13;;;20.08;65.42
58821;BME280;70670;52.476;13.334;2023-07-30T09:03:52;100349.81;;;20.28;65.58
58821;BME280;70670;52.476;13.334;2023-07-30T09:06:18;100343.06;;;20.32;65.21
58821;BME280;70670;52.476;13.334;2023-07-30T09:08:44;100347.19;;;20.36;65.54
58821;BME280;70670;52.476;13.334;2023-07-30T09:11:10;100364.88;;;20.40;65.07
58821;BME280;70670;52.476;13.334;2023-07-30T09:13:40;100342.47;;;20.46;64.07
58821;BME280;70670;52.476;13.334;2023-07-30T09:16:13;100342.28;;;20.57;63.68
58821;BME280;70670;52.476;13.334;2023-07-30T09:18:43;100349.25;;;20.86;63.07
58821;BME280;70670;52.476;13.334;2023-07-30T09:21:13;100354.34;;;21.07;60.13
58821;BME280;70670;52.476;13.334;2023-07-30T09:23:40;100326.13;;;21.08;59.10
58821;BME280;70670;52.476;13.334;2023-07-30T09:26:06;100356.41;;;21.13;59.99
58821;BME280;70670;52.476;13.334;2023-07-30T09:28:32;100359.50;;;20.92;60.73
58821;BME280;70670;52.476;13.334;2023-07-30T09:31:01;100352.78;;;20.52;61.82
58821;BME280;70670;52.476;13.334;2023-07-30T09:33:27;100355.00;;;20.39;62.22
58821;BME280;70670;52.476;13.334;2023-07-30T09:35:53;100360.44;;;20.57;62.17
58821;BME280;70670;52.476;13.334;2023-07-30T09:38:19;100355.13;;;20.73;61.09
58821;BME280;70670;52.476;13.334;2023-07-30T09:40:45;100352.13;;;20.58;59.99
58821;BME280;70670;52.476;13.334;2023-07-30T09:43:13;100364.53;;;20.79;60.10
58821;BME280;70670;52.476;13.334;2023-07-30T09:45:38;100354.09;;;20.74;60.65
58821;BME280;70670;52.476;13.334;2023-07-30T09:48:05;100349.59;;;20.83;59.77
58821;BME280;70670;52.476;13.334;2023-07-30T09:50:33;100341.59;;;20.81;58.80
58821;BME280;70670;52.476;13.334;2023-07-30T09:53:01;100354.75;;;20.94;58.72
58821;BME280;70670;52.476;13.334;2023-07-30T09:55:27;100326.56;;;20.95;59.11
58821;BME280;70670;52.476;13.334;2023-07-30T09:57:52;100340.25;;;21.11;59.13
58821;BME280;70670;52.476;13.334;2023-07-30T10:00:18;100353.63;;;21.31;57.99
58821;BME280;70670;52.476;13.334;2023-07-30T10:02:49;100353.00;;;21.45;57.11
58821;BME280;70670;52.476;13.334;2023-07-30T10:05:17;100368.13;;;21.74;56.24
58821;BME280;70670;52.476;13.334;2023-07-30T10:07:53;100367.66;;;21.44;54.67
58821;BME280;70670;52.476;13.334;2023-07-30T10:10:22;100372.94;;;21.20;55.52
58821;BME280;70670;52.476;13.334;2023-07-30T10:12:51;100365.81;;;21.19;56.78
58821;BME280;70670;52.476;13.334;2023-07-30T10:15:19;100373.63;;;21.22;56.25
58821;BME280;70670;52.476;13.334;2023-07-30T10:17:46;100342.13;;;21.11;54.53
58821;BME280;70670;52.476;13.334;2023-07-30T10:20:26;100364.94;;;21.44;54.67
58821;BME280;70670;52.476;13.334;2023-07-30T10:22:57;100366.38;;;21.65;54.76
58821;BME280;70670;52.476;13.334;2023-07-30T10:25:28;100360.06;;;21.64;54.29
58821;BME280;70670;52.476;13.334;2023-07-30T10:27:55;100358.34;;;21.55;55.24
58821;BME280;70670;52.476;13.334;2023-07-30T10:30:21;100355.72;;;21.45;55.07
58821;BME280;70670;52.476;13.334;2023-07-30T10:38:27;100371.53;;;21.84;54.32
58821;BME280;70670;52.476;13.334;2023-07-30T10:41:07;100303.03;;;21.54;53.91
58821;BME280;70670;52.476;13.334;2023-07-30T10:43:40;100316.38;;;21.74;53.48
58821;BME280;70670;52.476;13.334;2023-07-30T10:46:07;100362.47;;;22.26;53.27
58821;BME280;70670;52.476;13.334;2023-07-30T10:48:41;100342.34;;;22.35;52.83
58821;BME280;70670;52.476;13.334;2023-07-30T10:51:12;100372.84;;;22.39;52.38
58821;BME280;70670;52.476;13.334;2023-07-30T10:53:38;100366.53;;;22.22;53.06
58821;BME280;70670;52.476;13.334;2023-07-30T10:56:07;100368.25;;;22.15;53.91
58821;BME280;70670;52.476;13.334;2023-07-30T10:58:35;100359.72;;;22.18;52.33
58821;BME280;70670;52.476;13.334;2023-07-30T11:01:02;100360.16;;;22.05;52.15
58821;BME280;70670;52.476;13.334;2023-07-30T11:03:29;100372.34;;;22.35;52.43
58821;BME280;70670;52.476;13.334;2023-07-30T11:05:55;100229.69;;;21.77;52.53
58821;BME280;70670;52.476;13.334;2023-07-30T11:08:40;100351.19;;;22.78;51.57
58821;BME280;70670;52.476;13.334;2023-07-30T11:11:09;100336.53;;;22.71;49.77
58821;BME280;70670;52.476;13.334;2023-07-30T11:13:38;100365.50;;;22.72;47.11
58821;BME280;70670;52.476;13.334;2023-07-30T11:16:05;100363.84;;;22.54;43.60
58821;BME280;70670;52.476;13.334;2023-07-30T11:18:32;100376.63;;;22.38;44.17
58821;BME280;70670;52.476;13.334;2023-07-30T11:21:12;100354.94;;;22.36;44.34
58821;BME280;70670;52.476;13.334;2023-07-30T11:23:40;100348.00;;;22.42;45.71
58821;BME280;70670;52.476;13.334;2023-07-30T11:26:08;100352.22;;;22.61;45.93
58821;BME280;70670;52.476;13.334;2023-07-30T11:28:38;100345.41;;;22.73;46.61
58821;BME280;70670;52.476;13.334;2023-07-30T11:31:09;100347.25;;;22.89;44.85
58821;BME280;70670;52.476;13.334;2023-07-30T11:33:43;100297.66;;;22.61;44.06
58821;BME280;70670;52.476;13.334;2023-07-30T11:36:18;100341.63;;;22.98;44.07
58821;BME280;70670;52.476;13.334;2023-07-30T11:38:44;100339.56;;;23.00;44.50
58821;BME280;70670;52.476;13.334;2023-07-30T11:41:12;100336.50;;;22.87;45.84
58821;BME280;70670;52.476;13.334;2023-07-30T11:43:40;100300.53;;;22.75;45.08
58821;BME280;70670;52.476;13.334;2023-07-30T11:46:08;100333.63;;;22.72;45.77
58821;BME280;70670;52.476;13.334;2023-07-30T11:48:34;100339.75;;;22.82;45.71
58821;BME280;70670;52.476;13.334;2023-07-30T11:51:00;100346.88;;;23.08;46.10
58821;BME280;70670;52.476;13.334;2023-07-30T11:53:45;100343.25;;;23.24;46.78
58821;BME280;70670;52.476;13.334;2023-07-30T11:56:33;100348.44;;;23.50;46.56
58821;BME280;70670;52.476;13.334;2023-07-30T11:59:00;100346.66;;;23.26;45.64
58821;BME280;70670;52.476;13.334;2023-07-30T12:01:30;100327.53;;;23.34;46.12
58821;BME280;70670;52.476;13.334;2023-07-30T12:03:56;100327.31;;;23.44;44.88
58821;BME280;70670;52.476;13.334;2023-07-30T12:06:22;100327.44;;;23.50;43.52
58821;BME280;70670;52.476;13.334;2023-07-30T12:08:49;100334.59;;;23.51;43.79
58821;BME280;70670;52.476;13.334;2023-07-30T12:11:17;100342.56;;;23.30;42.40
58821;BME280;70670;52.476;13.334;2023-07-30T12:13:44;100343.75;;;23.27;44.64
58821;BME280;70670;52.476;13.334;2023-07-30T12:16:13;100340.16;;;23.35;44.66
58821;BME280;70670;52.476;13.334;2023-07-30T12:18:40;100300.47;;;23.08;44.60
58821;BME280;70670;52.476;13.334;2023-07-30T12:21:06;100331.38;;;23.48;45.01
58821;BME280;70670;52.476;13.334;2023-07-30T12:23:34;100342.59;;;23.69;45.31
58821;BME280;70670;52.476;13.334;2023-07-30T12:26:00;100339.66;;;23.71;45.30
58821;BME280;70670;52.476;13.334;2023-07-30T12:28:26;100336.84;;;23.56;45.39
58821;BME280;70670;52.476;13.334;2023-07-30T12:30:52;100333.56;;;23.61;45.04
58821;BME280;70670;52.476;13.334;2023-07-30T12:33:17;100307.72;;;23.40;45.95
58821;BME280;70670;52.476;13.334;2023-07-30T12:35:44;100345.63;;;23.74;44.96
58821;BME280;70670;52.476;13.334;2023-07-30T12:38:10;100342.41;;;23.63;44.54